Time;durP1;ratioP1;P1;durP2;ratioP2;P2;SDS_P1;SDS_P2;PMS_P1;PMS_P2;Temp;Humidity;BMP_temperature;BMP_pressure;BME280_temperature;BME280_humidity;BME280_pressure;Samples;Min_cycle;Max_cycle;Signal;HPM_P1;HPM_P2
2022/09/24 00:01:15;;;;;;;44.88;38.45;;;13.50;99.90;;;;;;5002549;28;20038;-68
2022/09/24 00:03:44;;;;;;;45.95;40.72;;;13.50;99.90;;;;;;5001931;28;20038;-68
2022/09/24 00:06:14;;;;;;;46.05;40.58;;;13.50;99.90;;;;;;4988828;28;20048;-68
2022/09/24 00:08:40;;;;;;;43.05;38.40;;;13.50;99.90;;;;;;5000584;28;20077;-68
2022/09/24 00:11:07;;;;;;;47.72;39.17;;;13.50;99.90;;;;;;5006606;28;20041;-67
2022/09/24 00:13:34;;;;;;;48.13;42.42;;;13.50;99.90;;;;;;5005945;28;20045;-67
2022/09/24 00:16:03;;;;;;;47.83;42.42;;;13.50;99.90;;;;;;5003597;28;20077;-68
2022/09/24 00:18:29;;;;;;;49.75;41.72;;;13.50;99.90;;;;;;5003160;28;20129;-68
2022/09/24 00:20:55;;;;;;;45.20;39.08;;;13.50;99.90;;;;;;5008378;28;20037;-67
2022/09/24 00:23:21;;;;;;;47.15;38.13;;;13.50;99.90;;;;;;5002046;28;20482;-68
2022/09/24 00:28:31;;;;;;;49.60;42.90;;;13.50;99.90;;;;;;4997652;28;20591;-68
2022/09/24 00:30:58;;;;;;;46.35;40.85;;;13.50;99.90;;;;;;4997314;28;20413;-68
2022/09/24 00:33:27;;;;;;;49.60;43.17;;;13.50;99.90;;;;;;5022591;28;20046;-68
2022/09/24 00:35:59;;;;;;;47.72;42.58;;;13.50;99.90;;;;;;5003495;28;20080;-68
2022/09/24 00:38:25;;;;;;;53.72;45.67;;;13.40;99.90;;;;;;5006861;28;20052;-68
2022/09/24 00:40:51;;;;;;;49.05;42.75;;;13.50;99.90;;;;;;4997842;28;20042;-68
2022/09/24 00:43:35;;;;;;;47.92;42.72;;;13.50;99.90;;;;;;5006059;28;20050;-68
2022/09/24 00:46:12;;;;;;;48.60;43.23;;;13.40;99.90;;;;;;5006326;28;20041;-68
2022/09/24 00:48:40;;;;;;;50.35;43.22;;;13.50;99.90;;;;;;5000554;28;20290;-68
2022/09/24 00:51:07;;;;;;;49.67;43.58;;;13.40;99.90;;;;;;5004965;28;20441;-68
2022/09/24 00:53:33;;;;;;;48.53;43.38;;;13.40;99.90;;;;;;5006065;28;20128;-68
2022/09/24 00:56:01;;;;;;;56.95;44.90;;;13.40;99.90;;;;;;5005796;28;20049;-68
2022/09/24 00:58:30;;;;;;;49.95;43.88;;;13.40;99.90;;;;;;5019400;28;20076;-68
2022/09/24 01:01:04;;;;;;;49.28;43.67;;;13.40;99.90;;;;;;4999123;28;20070;-68
2022/09/24 01:03:32;;;;;;;56.53;48.55;;;13.40;99.90;;;;;;5005928;28;20033;-68
2022/09/24 01:05:58;;;;;;;50.78;44.50;;;13.40;99.90;;;;;;5001863;28;20371;-67
2022/09/24 01:08:24;;;;;;;52.47;45.45;;;13.40;99.90;;;;;;5002881;28;20080;-67
2022/09/24 01:10:59;;;;;;;48.08;42.85;;;13.40;99.90;;;;;;4999381;28;20046;-67
2022/09/24 01:13:32;;;;;;;51.63;45.28;;;13.40;99.90;;;;;;4998921;28;20046;-68
2022/09/24 01:16:30;;;;;;;50.92;44.50;;;13.40;99.90;;;;;;4998717;28;20049;-68
2022/09/24 01:19:33;;;;;;;50.78;44.25;;;13.40;99.90;;;;;;5003707;28;20433;-67
2022/09/24 01:22:08;;;;;;;50.53;43.35;;;13.40;99.90;;;;;;5000136;28;20524;-67
2022/09/24 01:24:58;;;;;;;50.05;42.75;;;13.40;99.90;;;;;;5005658;28;20034;-68
2022/09/24 01:27:51;;;;;;;52.53;45.40;;;13.40;99.90;;;;;;4997813;28;20046;-67
2022/09/24 01:30:17;;;;;;;49.92;44.30;;;13.30;99.90;;;;;;5003326;28;20074;-68
2022/09/24 01:32:49;;;;;;;52.65;46.88;;;13.40;99.90;;;;;;5000260;28;20088;-68
2022/09/24 01:35:26;;;;;;;55.08;46.95;;;13.40;99.90;;;;;;5002791;28;20382;-67
2022/09/24 01:38:02;;;;;;;59.25;47.95;;;13.40;99.90;;;;;;5002519;28;20045;-67
2022/09/24 01:40:29;;;;;;;52.88;44.97;;;13.40;99.90;;;;;;5005538;28;20042;-68
2022/09/24 01:42:57;;;;;;;57.28;44.55;;;13.40;99.90;;;;;;5005304;28;20046;-67
2022/09/24 01:45:25;;;;;;;58.20;47.63;;;13.40;99.90;;;;;;5004148;28;20412;-68
2022/09/24 01:47:51;;;;;;;49.10;43.78;;;13.30;99.90;;;;;;5000171;28;20133;-68
2022/09/24 01:50:18;;;;;;;52.78;44.67;;;13.30;99.90;;;;;;5002231;28;20129;-68
2022/09/24 01:52:57;;;;;;;60.15;49.38;;;13.30;99.90;;;;;;5002650;28;20038;-68
2022/09/24 01:55:28;;;;;;;52.25;44.92;;;13.30;99.90;;;;;;5000397;28;20038;-68
2022/09/24 01:58:00;;;;;;;52.47;44.20;;;13.30;99.90;;;;;;5001615;28;20038;-68
2022/09/24 02:00:26;;;;;;;49.17;43.38;;;13.30;99.90;;;;;;5002139;28;20070;-68
2022/09/24 02:03:10;;;;;;;53.85;44.70;;;13.30;99.90;;;;;;4999981;28;20099;-68
2022/09/24 02:05:57;;;;;;;53.50;47.35;;;13.30;99.90;;;;;;4999648;28;20084;-68
2022/09/24 02:08:28;;;;;;;53.28;44.83;;;13.30;99.90;;;;;;5001515;28;20050;-67
2022/09/24 02:11:13;;;;;;;55.60;45.83;;;13.30;99.90;;;;;;5003430;28;20041;-68
2022/09/24 02:13:46;;;;;;;;;;;13.20;99.90;;;;;;5003202;28;20459;-68
2022/09/24 02:16:15;;;;;;;62.03;48.30;;;13.30;99.90;;;;;;5018229;28;20365;-68
2022/09/24 02:18:45;;;;;;;56.35;46.42;;;13.20;99.90;;;;;;5000945;28;20046;-68
2022/09/24 02:21:16;;;;;;;57.22;47.50;;;13.30;99.90;;;;;;5002053;28;20506;-67
2022/09/24 02:23:56;;;;;;;53.33;46.42;;;13.20;99.90;;;;;;5006862;28;20547;-67
2022/09/24 02:26:22;;;;;;;52.45;46.13;;;13.20;99.90;;;;;;5000852;28;20041;-67
2022/09/24 02:28:48;;;;;;;54.42;46.03;;;13.20;99.90;;;;;;4999934;28;20409;-67
2022/09/24 02:31:19;;;;;;;56.00;46.33;;;13.30;99.90;;;;;;5005179;28;20123;-67
2022/09/24 02:36:33;;;;;;;53.72;44.20;;;13.30;99.90;;;;;;5003417;28;20044;-67
2022/09/24 02:39:00;;;;;;;51.58;44.13;;;13.20;99.90;;;;;;5000806;28;20046;-67
2022/09/24 02:41:26;;;;;;;55.58;46.50;;;13.20;99.90;;;;;;5003146;28;20073;-67
2022/09/24 02:43:52;;;;;;;52.13;43.67;;;13.20;99.90;;;;;;5005603;28;20133;-67
2022/09/24 02:46:18;;;;;;;59.90;46.85;;;13.20;99.90;;;;;;5000790;28;20048;-67
2022/09/24 02:48:44;;;;;;;48.55;43.28;;;13.20;99.90;;;;;;5002765;28;20122;-68
2022/09/24 02:51:10;;;;;;;55.17;43.83;;;13.20;99.90;;;;;;4999541;28;20129;-68
2022/09/24 02:53:35;;;;;;;58.17;46.45;;;13.20;99.90;;;;;;5003232;28;20109;-68
2022/09/24 02:56:02;;;;;;;56.30;46.90;;;13.30;99.90;;;;;;5000239;28;20492;-68
2022/09/24 02:58:28;;;;;;;50.13;41.95;;;13.20;99.90;;;;;;5007437;28;20049;-68
2022/09/24 03:00:55;;;;;;;53.50;43.60;;;13.30;99.90;;;;;;5001186;28;20042;-68
2022/09/24 03:03:24;;;;;;;55.20;45.75;;;13.20;99.90;;;;;;5007261;28;20116;-68
2022/09/24 03:05:54;;;;;;;58.90;48.42;;;13.20;99.90;;;;;;5009441;28;20049;-68
2022/09/24 03:08:22;;;;;;;61.83;48.88;;;13.20;99.90;;;;;;5008047;28;20050;-68
2022/09/24 03:10:50;;;;;;;55.20;44.72;;;13.20;99.90;;;;;;4998021;28;20069;-68
2022/09/24 03:13:17;;;;;;;58.15;46.55;;;13.20;99.90;;;;;;5004741;28;20045;-68
2022/09/24 03:15:46;;;;;;;61.95;48.28;;;13.20;99.90;;;;;;5003491;28;20076;-68
2022/09/24 03:18:12;;;;;;;54.03;45.67;;;13.20;99.90;;;;;;5001228;28;20128;-68
2022/09/24 03:20:38;;;;;;;56.20;45.38;;;13.20;99.90;;;;;;4999867;28;20526;-68
2022/09/24 03:23:04;;;;;;;54.95;45.60;;;13.20;99.90;;;;;;5008218;28;20530;-68
2022/09/24 03:25:30;;;;;;;56.50;46.78;;;13.10;99.90;;;;;;5006990;28;20129;-68
2022/09/24 03:27:56;;;;;;;57.38;47.17;;;13.10;99.90;;;;;;5005316;28;20046;-67
2022/09/24 03:33:05;;;;;;;58.45;47.30;;;13.20;99.90;;;;;;5006535;28;20100;-68
2022/09/24 03:35:31;;;;;;;52.78;43.70;;;13.20;99.90;;;;;;5005441;28;20047;-67
2022/09/24 03:37:57;;;;;;;60.22;48.63;;;13.10;99.90;;;;;;5002859;28;20420;-68
2022/09/24 03:40:23;;;;;;;55.55;45.20;;;13.20;99.90;;;;;;5005559;28;20053;-68
2022/09/24 03:42:49;;;;;;;55.63;45.47;;;13.20;99.90;;;;;;5001294;28;20081;-67
2022/09/24 03:45:14;;;;;;;58.45;44.75;;;13.20;99.90;;;;;;5005366;28;20073;-68
2022/09/24 03:47:41;;;;;;;54.50;46.20;;;13.20;99.90;;;;;;5004205;28;20349;-68
2022/09/24 03:50:10;;;;;;;51.58;45.08;;;13.10;99.90;;;;;;5007956;28;20056;-68
2022/09/24 03:52:37;;;;;;;59.85;48.28;;;13.20;99.90;;;;;;5006655;28;20093;-68
2022/09/24 03:55:03;;;;;;;62.92;48.47;;;13.20;99.90;;;;;;5002455;28;20081;-68
2022/09/24 03:57:29;;;;;;;56.13;47.33;;;13.20;99.90;;;;;;5005308;28;20505;-68
2022/09/24 03:59:54;;;;;;;55.60;45.45;;;13.20;99.90;;;;;;5003456;28;20069;-67
2022/09/24 04:02:20;;;;;;;56.47;44.72;;;13.20;99.90;;;;;;4999228;28;20046;-68
2022/09/24 04:04:46;;;;;;;63.53;49.83;;;13.20;99.90;;;;;;5001985;28;20056;-68
2022/09/24 04:07:12;;;;;;;61.95;48.08;;;13.20;99.90;;;;;;5002162;28;20095;-68
2022/09/24 04:09:37;;;;;;;52.47;43.95;;;13.20;99.90;;;;;;5005090;28;20031;-67
2022/09/24 04:12:05;;;;;;;53.60;44.08;;;13.20;99.90;;;;;;5000490;28;20045;-67
2022/09/24 04:14:30;;;;;;;53.78;44.72;;;13.20;99.90;;;;;;5005577;28;20065;-68
2022/09/24 04:16:57;;;;;;;54.60;45.40;;;13.20;99.90;;;;;;5001268;28;20494;-68
2022/09/24 04:19:25;;;;;;;62.70;48.55;;;13.20;99.90;;;;;;5001634;28;20046;-68
2022/09/24 04:21:51;;;;;;;54.40;46.03;;;13.20;99.90;;;;;;5005640;28;20066;-67
2022/09/24 04:24:17;;;;;;;52.92;45.92;;;13.20;99.90;;;;;;5002351;28;20034;-67
2022/09/24 04:26:43;;;;;;;60.00;49.13;;;13.20;99.90;;;;;;5006347;28;20056;-68
2022/09/24 04:29:09;;;;;;;61.03;48.28;;;13.20;99.90;;;;;;5004983;28;20104;-68
2022/09/24 04:31:34;;;;;;;58.47;47.67;;;13.20;99.90;;;;;;5008468;28;20428;-68
2022/09/24 04:34:00;;;;;;;63.38;49.42;;;13.20;99.90;;;;;;5001111;28;20038;-68
2022/09/24 04:36:26;;;;;;;65.10;50.75;;;13.10;99.90;;;;;;5005839;28;20038;-68
2022/09/24 04:38:52;;;;;;;58.30;46.83;;;13.20;99.90;;;;;;4997030;28;20363;-68
2022/09/24 04:41:17;;;;;;;55.08;45.15;;;13.10;99.90;;;;;;5003025;28;20053;-68
2022/09/24 04:43:46;;;;;;;62.17;49.35;;;13.20;99.90;;;;;;5000530;28;20494;-68
2022/09/24 04:46:12;;;;;;;60.70;47.45;;;13.20;99.90;;;;;;4999237;28;20034;-68
2022/09/24 04:48:38;;;;;;;59.65;46.65;;;13.20;99.90;;;;;;5000166;28;20061;-68
2022/09/24 04:51:06;;;;;;;72.05;49.88;;;13.20;99.90;;;;;;5000946;28;20482;-67
2022/09/24 04:53:36;;;;;;;68.07;50.08;;;13.10;99.90;;;;;;4998512;28;20038;-68
2022/09/24 04:56:03;;;;;;;62.85;49.50;;;13.10;99.90;;;;;;5000952;28;20056;-68
2022/09/24 04:58:29;;;;;;;62.85;48.13;;;13.20;99.90;;;;;;5001140;28;20054;-68
2022/09/24 05:00:55;;;;;;;58.08;47.83;;;13.20;99.90;;;;;;4999743;28;20039;-68
2022/09/24 05:03:21;;;;;;;59.38;46.55;;;13.10;99.90;;;;;;4997204;28;20498;-67
2022/09/24 05:05:47;;;;;;;58.70;48.10;;;13.20;99.90;;;;;;4999706;28;20452;-68
2022/09/24 05:08:13;;;;;;;64.32;50.17;;;13.20;99.90;;;;;;5002889;28;20042;-68
2022/09/24 05:10:39;;;;;;;65.43;50.55;;;13.20;99.90;;;;;;5000410;28;20402;-68
2022/09/24 05:13:04;;;;;;;62.10;49.38;;;13.20;99.90;;;;;;5001875;28;20034;-67
2022/09/24 05:15:30;;;;;;;67.68;49.22;;;13.20;99.90;;;;;;5004136;28;20137;-67
2022/09/24 05:17:57;;;;;;;59.88;49.17;;;13.20;99.90;;;;;;5001277;28;20069;-67
2022/09/24 05:20:23;;;;;;;55.95;47.30;;;13.10;99.90;;;;;;4996909;28;20365;-68
2022/09/24 05:22:49;;;;;;;57.95;46.90;;;13.20;99.90;;;;;;5003420;28;20572;-67
2022/09/24 05:25:16;;;;;;;60.72;48.17;;;13.20;99.90;;;;;;5004730;28;20099;-68
2022/09/24 05:27:46;;;;;;;58.10;47.10;;;13.20;99.90;;;;;;5000015;28;20050;-68
2022/09/24 05:30:13;;;;;;;57.72;46.78;;;13.20;99.90;;;;;;5001936;28;20065;-68
2022/09/24 05:32:38;;;;;;;62.90;50.10;;;13.20;99.90;;;;;;4999584;28;20597;-68
2022/09/24 05:35:07;;;;;;;62.20;48.42;;;13.20;99.90;;;;;;4983146;28;20053;-68
2022/09/24 05:37:34;;;;;;;59.38;47.55;;;13.20;99.90;;;;;;5002601;28;20122;-68
2022/09/24 05:40:46;;;;;;;55.50;44.95;;;13.20;99.90;;;;;;4997522;28;20034;-68
2022/09/24 05:42:49;;;;;;;52.63;45.75;;;13.20;99.90;;;;;;5001849;28;20142;-67
2022/09/24 05:45:17;;;;;;;60.88;48.67;;;13.20;99.90;;;;;;4997998;28;20728;-68
2022/09/24 05:47:46;;;;;;;57.50;49.67;;;13.30;99.90;;;;;;5000773;28;20394;-68
2022/09/24 05:50:12;;;;;;;58.33;48.15;;;13.30;99.90;;;;;;4998941;28;20086;-69
2022/09/24 05:52:40;;;;;;;62.10;49.88;;;13.20;99.90;;;;;;4998829;28;20061;-68
2022/09/24 05:55:07;;;;;;;65.47;49.92;;;13.30;99.90;;;;;;5000957;28;20058;-68
2022/09/24 05:57:33;;;;;;;67.90;50.65;;;13.30;99.90;;;;;;4997970;28;20077;-68
2022/09/24 05:59:59;;;;;;;67.82;51.85;;;13.30;99.90;;;;;;4999087;28;20116;-68
2022/09/24 06:02:25;;;;;;;72.85;51.60;;;13.30;99.90;;;;;;4998626;28;20038;-68
2022/09/24 06:04:50;;;;;;;74.15;52.58;;;13.30;99.90;;;;;;4998492;28;20038;-67
2022/09/24 06:07:16;;;;;;;70.43;51.78;;;13.30;99.90;;;;;;5011450;28;20049;-67
2022/09/24 06:09:43;;;;;;;67.88;50.88;;;13.20;99.90;;;;;;4999489;28;20056;-67
2022/09/24 06:12:09;;;;;;;86.38;54.75;;;13.20;99.90;;;;;;5001372;28;20038;-66
2022/09/24 06:14:35;;;;;;;80.32;53.55;;;13.20;99.90;;;;;;5004181;28;20038;-67
2022/09/24 06:17:01;;;;;;;82.55;55.13;;;13.20;99.90;;;;;;4998788;28;20156;-66
2022/09/24 06:19:27;;;;;;;79.07;50.80;;;13.20;99.90;;;;;;5001611;28;20525;-65
2022/09/24 06:21:56;;;;;;;66.55;45.50;;;13.20;99.90;;;;;;5003465;28;20040;-66
2022/09/24 06:24:22;;;;;;;62.53;41.53;;;13.10;99.90;;;;;;5004942;28;20444;-69
2022/09/24 06:26:48;;;;;;;52.17;35.83;;;13.10;99.90;;;;;;4999483;28;20471;-67
2022/09/24 06:29:14;;;;;;;54.83;35.33;;;13.00;99.90;;;;;;4999296;28;20046;-67
2022/09/24 06:31:39;;;;;;;92.82;40.40;;;13.10;99.90;;;;;;5011037;28;20049;-67
2022/09/24 06:34:05;;;;;;;40.95;29.73;;;13.10;99.90;;;;;;5003977;28;20030;-66
2022/09/24 06:36:30;;;;;;;35.92;26.65;;;13.10;99.90;;;;;;5003102;28;20088;-68
2022/09/24 06:38:57;;;;;;;26.52;21.17;;;13.00;99.90;;;;;;5003224;28;20072;-66
2022/09/24 06:41:23;;;;;;;46.92;24.65;;;13.00;99.90;;;;;;4999446;28;20474;-66
2022/09/24 06:43:55;;;;;;;30.85;19.98;;;13.00;99.90;;;;;;5005738;28;20038;-68
2022/09/24 06:46:24;;;;;;;36.47;18.23;;;13.10;99.90;;;;;;4997545;28;20516;-67
2022/09/24 06:48:52;;;;;;;31.73;17.27;;;13.00;99.90;;;;;;5006894;28;20183;-68
2022/09/24 06:51:18;;;;;;;87.38;23.98;;;13.00;99.90;;;;;;5001354;28;20074;-66
2022/09/24 06:53:49;;;;;;;33.78;23.88;;;13.00;99.90;;;;;;5011798;28;20084;-67
2022/09/24 06:56:15;;;;;;;44.97;24.83;;;13.10;99.90;;;;;;5016974;28;20472;-67
2022/09/24 06:58:40;;;;;;;47.80;26.73;;;13.10;99.90;;;;;;5006202;28;20117;-67
2022/09/24 07:01:07;;;;;;;33.72;22.52;;;13.10;99.90;;;;;;5003816;28;20122;-67
2022/09/24 07:03:33;;;;;;;33.30;22.73;;;13.20;99.90;;;;;;5002515;28;20147;-67
2022/09/24 07:06:01;;;;;;;47.63;25.10;;;13.20;99.90;;;;;;5004881;28;20042;-68
2022/09/24 07:08:27;;;;;;;33.45;22.02;;;13.20;99.90;;;;;;5001342;28;20186;-67
2022/09/24 07:10:53;;;;;;;30.60;22.05;;;13.30;99.90;;;;;;5003967;28;20038;-68
2022/09/24 07:13:22;;;;;;;33.97;22.98;;;13.30;99.90;;;;;;5005499;28;20042;-68
2022/09/24 07:15:49;;;;;;;26.27;19.77;;;13.30;99.90;;;;;;5002477;28;20117;-66
2022/09/24 07:18:16;;;;;;;31.05;22.50;;;13.40;99.90;;;;;;5005041;28;20058;-67
2022/09/24 07:20:42;;;;;;;32.72;21.67;;;13.50;99.90;;;;;;5011509;28;20366;-67
2022/09/24 07:23:09;;;;;;;30.52;21.73;;;13.50;99.90;;;;;;4993668;28;20116;-68
2022/09/24 07:25:36;;;;;;;65.07;26.63;;;13.50;99.90;;;;;;5000996;28;20109;-67
2022/09/24 07:28:08;;;;;;;31.95;20.50;;;13.60;99.90;;;;;;4998931;28;20066;-66
2022/09/24 07:30:34;;;;;;;30.15;21.23;;;13.60;99.90;;;;;;5004716;28;20042;-67
2022/09/24 07:33:00;;;;;;;42.08;21.75;;;13.60;99.90;;;;;;5005757;28;20046;-67
2022/09/24 07:35:27;;;;;;;27.80;20.05;;;13.70;99.90;;;;;;5020592;28;20108;-66
2022/09/24 07:38:01;;;;;;;40.70;23.02;;;13.70;99.90;;;;;;5004202;28;20105;-66
2022/09/24 07:40:28;;;;;;;53.80;23.50;;;13.80;99.90;;;;;;5018402;28;20054;-67
2022/09/24 07:42:54;;;;;;;29.27;20.80;;;13.80;99.90;;;;;;4998840;28;20085;-69
2022/09/24 07:45:21;;;;;;;50.20;23.50;;;13.80;99.90;;;;;;4997763;28;20081;-66
2022/09/24 07:47:47;;;;;;;29.77;19.15;;;13.80;99.90;;;;;;5005511;28;20042;-66
2022/09/24 07:50:13;;;;;;;19.70;14.07;;;13.90;99.90;;;;;;4998708;28;20103;-66
2022/09/24 07:52:39;;;;;;;23.73;15.15;;;13.90;99.90;;;;;;5005876;28;20073;-68
2022/09/24 07:55:05;;;;;;;24.83;14.23;;;14.00;99.90;;;;;;5002570;28;20402;-66
2022/09/24 07:57:31;;;;;;;25.77;15.02;;;13.90;99.90;;;;;;4999978;28;20042;-66
2022/09/24 07:59:57;;;;;;;23.67;12.65;;;13.90;99.90;;;;;;5000677;28;20042;-67
2022/09/24 08:02:23;;;;;;;30.83;14.85;;;14.00;99.90;;;;;;4996457;28;20045;-67
2022/09/24 08:04:49;;;;;;;23.00;12.77;;;14.00;99.90;;;;;;5000590;28;20038;-66
2022/09/24 08:07:15;;;;;;;18.75;10.00;;;14.10;99.90;;;;;;5002014;28;20034;-66
2022/09/24 08:09:41;;;;;;;22.40;10.88;;;14.00;99.90;;;;;;4999740;28;20096;-67
2022/09/24 08:12:07;;;;;;;26.42;10.07;;;14.00;99.90;;;;;;4999216;28;20465;-67
2022/09/24 08:14:33;;;;;;;19.05;8.13;;;14.10;99.90;;;;;;4998773;28;20112;-67
2022/09/24 08:17:00;;;;;;;22.02;7.93;;;14.10;99.90;;;;;;5012604;28;20481;-66
2022/09/24 08:19:27;;;;;;;16.17;7.07;;;14.10;99.90;;;;;;5003314;28;20080;-66
2022/09/24 08:21:52;;;;;;;25.42;10.45;;;14.20;99.90;;;;;;5003120;28;20042;-65
2022/09/24 08:24:18;;;;;;;21.67;7.57;;;14.20;99.90;;;;;;5000334;28;20056;-68
2022/09/24 08:26:44;;;;;;;14.13;6.93;;;14.30;99.90;;;;;;5000379;28;20038;-66
2022/09/24 08:29:10;;;;;;;13.88;5.50;;;14.40;99.90;;;;;;5004397;28;20092;-66
2022/09/24 08:31:36;;;;;;;19.90;5.97;;;14.40;99.90;;;;;;5004180;28;20563;-66
2022/09/24 08:34:02;;;;;;;20.25;4.95;;;14.40;99.90;;;;;;5001707;28;20049;-66
2022/09/24 08:36:27;;;;;;;16.48;5.38;;;14.50;99.90;;;;;;4999875;28;20402;-66
2022/09/24 08:38:54;;;;;;;17.33;3.85;;;14.50;99.90;;;;;;5000587;28;20038;-66
2022/09/24 08:41:27;;;;;;;17.20;3.63;;;14.60;99.90;;;;;;5005462;28;20054;-66
2022/09/24 08:44:14;;;;;;;15.50;4.13;;;14.70;99.90;;;;;;4999081;28;20053;-65
2022/09/24 08:49:36;;;;;;;13.98;2.58;;;14.80;99.90;;;;;;5005730;28;20072;-66
2022/09/24 08:52:23;;;;;;;17.27;2.28;;;14.90;99.90;;;;;;5005795;28;20113;-66
2022/09/24 08:55:03;;;;;;;11.80;1.88;;;14.90;99.90;;;;;;5132404;27;20130;-65
2022/09/24 08:57:37;;;;;;;10.27;1.77;;;15.00;99.90;;;;;;5125603;27;20046;-65
2022/09/24 09:00:04;;;;;;;9.25;1.00;;;14.90;99.90;;;;;;5123678;27;20048;-65
2022/09/24 09:02:53;;;;;;;6.22;0.60;;;14.90;99.90;;;;;;5127284;27;20513;-67
2022/09/24 09:05:42;;;;;;;5.75;0.90;;;14.90;99.90;;;;;;5128699;27;20496;-65
2022/09/24 09:08:18;;;;;;;5.93;0.82;;;14.90;99.90;;;;;;5121177;27;20050;-66
2022/09/24 09:10:44;;;;;;;10.27;1.25;;;14.80;99.90;;;;;;5127592;27;20035;-66
2022/09/24 09:13:20;;;;;;;7.90;1.10;;;14.90;99.90;;;;;;5125345;27;20119;-65
2022/09/24 09:15:52;;;;;;;6.60;1.15;;;14.80;99.90;;;;;;5133533;27;20176;-65
2022/09/24 09:18:26;;;;;;;6.90;0.90;;;14.80;99.90;;;;;;5123221;27;20070;-65
2022/09/24 09:20:57;;;;;;;8.67;0.93;;;14.80;99.90;;;;;;5126856;27;20027;-65
2022/09/24 09:23:35;;;;;;;7.93;0.93;;;14.80;99.90;;;;;;5122296;27;20450;-65
2022/09/24 09:26:01;;;;;;;5.20;0.65;;;14.80;99.90;;;;;;5134002;27;20072;-66
2022/09/24 09:28:27;;;;;;;5.97;2.30;;;14.80;99.90;;;;;;5134372;27;20039;-65
2022/09/24 09:31:06;;;;;;;8.05;1.15;;;14.90;99.90;;;;;;5125099;27;20184;-65
2022/09/24 09:33:32;;;;;;;4.85;0.80;;;14.90;99.90;;;;;;5128447;27;20042;-66
2022/09/24 09:36:21;;;;;;;5.03;0.80;;;14.90;99.90;;;;;;5126932;27;20051;-65
2022/09/24 09:38:58;;;;;;;9.07;1.15;;;15.00;99.90;;;;;;5123518;27;20399;-65
2022/09/24 09:41:51;;;;;;;9.07;0.90;;;15.10;99.90;;;;;;5109619;27;20043;-65
2022/09/24 09:44:26;;;;;;;6.88;1.60;;;15.10;99.90;;;;;;5108430;28;20133;-65
2022/09/24 09:47:16;;;;;;;13.30;3.00;;;15.00;99.90;;;;;;5107935;28;20089;-64
2022/09/24 09:49:44;;;;;;;9.15;1.75;;;15.10;99.90;;;;;;5107813;28;20548;-65
2022/09/24 09:52:18;;;;;;;11.00;1.90;;;15.10;99.90;;;;;;5111486;27;20297;-65
2022/09/24 09:54:44;;;;;;;14.73;1.48;;;15.10;99.90;;;;;;5110157;28;20242;-66
2022/09/24 09:57:22;;;;;;;10.02;1.70;;;15.20;99.90;;;;;;5107548;28;20111;-66
2022/09/24 09:59:49;;;;;;;10.80;1.48;;;15.50;99.90;;;;;;5123891;27;20079;-65
2022/09/24 10:02:28;;;;;;;12.55;1.52;;;15.80;99.90;;;;;;5105183;28;20040;-65
2022/09/24 10:04:57;;;;;;;13.50;1.95;;;16.00;99.90;;;;;;5098940;28;20234;-65
2022/09/24 10:07:24;;;;;;;11.02;1.42;;;16.10;99.90;;;;;;5090943;28;20037;-66
2022/09/24 10:10:22;;;;;;;9.15;1.58;;;16.10;99.90;;;;;;5094860;28;20042;-65
2022/09/24 10:12:53;;;;;;;11.85;1.58;;;15.80;99.90;;;;;;5081665;28;20055;-65
2022/09/24 10:15:23;;;;;;;13.88;1.52;;;15.50;99.90;;;;;;5096207;27;20138;-66
2022/09/24 10:17:52;;;;;;;12.32;1.42;;;15.40;99.90;;;;;;5093367;28;20486;-65
2022/09/24 10:20:26;;;;;;;10.98;1.67;;;15.20;99.90;;;;;;5088699;28;20496;-65
2022/09/24 10:23:02;;;;;;;14.60;1.70;;;15.20;99.90;;;;;;5092851;28;20040;-65
2022/09/24 10:25:30;;;;;;;13.40;1.55;;;15.00;99.90;;;;;;5098416;28;20342;-65
2022/09/24 10:31:02;;;;;;;9.65;1.25;;;14.90;99.90;;;;;;5089539;28;20147;-65
2022/09/24 10:33:39;;;;;;;11.05;1.63;;;14.80;99.90;;;;;;5103244;28;20050;-64
2022/09/24 10:36:13;;;;;;;10.00;1.65;;;14.80;99.90;;;;;;5093529;28;20040;-65
2022/09/24 10:38:38;;;;;;;9.83;1.47;;;14.80;99.90;;;;;;5095381;28;20407;-65
2022/09/24 10:41:34;;;;;;;9.63;1.70;;;14.80;99.90;;;;;;5086971;28;20165;-66
2022/09/24 10:44:10;;;;;;;10.32;1.85;;;14.80;99.90;;;;;;5071534;28;20449;-65
2022/09/24 10:46:47;;;;;;;9.60;1.15;;;14.80;99.90;;;;;;5084788;28;20036;-65
2022/09/24 10:49:26;;;;;;;7.07;1.10;;;14.90;99.90;;;;;;5092402;28;20468;-65
2022/09/24 10:52:13;;;;;;;6.93;0.85;;;14.90;99.90;;;;;;5082416;28;20460;-65
2022/09/24 10:54:48;;;;;;;9.55;1.42;;;14.80;99.90;;;;;;5091612;28;20063;-65
2022/09/24 10:57:33;;;;;;;5.57;0.68;;;14.80;99.90;;;;;;5090095;28;20144;-65
2022/09/24 11:00:21;;;;;;;4.88;0.70;;;14.80;99.90;;;;;;5096972;28;20048;-66
2022/09/24 11:03:23;;;;;;;6.18;0.93;;;14.80;99.90;;;;;;5096692;28;20099;-65
2022/09/24 11:05:55;;;;;;;5.88;0.50;;;15.00;99.90;;;;;;5065888;28;20467;-65
2022/09/24 11:08:27;;;;;;;9.80;1.00;;;15.10;99.90;;;;;;5092276;28;20489;-66
2022/09/24 11:11:02;;;;;;;4.63;1.02;;;15.20;99.90;;;;;;5088857;28;20056;-66
2022/09/24 11:13:56;;;;;;;2.95;0.70;;;15.40;99.90;;;;;;5092209;28;20044;-65
2022/09/24 11:16:55;;;;;;;3.13;0.47;;;15.50;99.90;;;;;;5091551;28;20373;-65
2022/09/24 11:19:49;;;;;;;2.30;0.40;;;15.50;99.90;;;;;;5092338;28;20051;-65
2022/09/24 11:22:26;;;;;;;3.78;0.43;;;15.50;99.90;;;;;;5091098;28;20042;-65
2022/09/24 11:25:23;;;;;;;2.78;0.50;;;15.40;99.90;;;;;;5094577;28;20056;-66
2022/09/24 11:28:01;;;;;;;4.63;0.30;;;15.30;99.90;;;;;;5073566;28;20078;-65
2022/09/24 11:30:55;;;;;;;3.80;0.60;;;15.20;99.90;;;;;;5092730;28;20388;-65
2022/09/24 11:33:40;;;;;;;2.55;0.38;;;15.10;99.90;;;;;;5094066;28;20411;-65
2022/09/24 11:36:22;;;;;;;3.60;0.73;;;15.10;99.90;;;;;;5087071;28;20139;-66
2022/09/24 11:39:12;;;;;;;4.88;0.52;;;15.20;99.90;;;;;;5083065;28;20047;-65
2022/09/24 11:42:02;;;;;;;3.88;0.52;;;15.30;99.90;;;;;;5088779;28;20078;-65
2022/09/24 11:45:01;;;;;;;4.50;0.50;;;15.30;99.90;;;;;;5099049;28;20126;-65
2022/09/24 11:47:35;;;;;;;2.22;0.52;;;15.30;99.90;;;;;;5093313;28;20047;-65
2022/09/24 11:50:10;;;;;;;;;;;15.30;99.90;;;;;;5097825;28;20038;-65
2022/09/24 11:52:39;;;;;;;;;;;15.30;99.90;;;;;;5094105;28;19916;-65
2022/09/24 11:55:30;;;;;;;2.78;0.55;;;15.20;99.90;;;;;;5093906;28;20006;-65
2022/09/24 11:58:17;;;;;;;3.83;0.80;;;15.30;99.90;;;;;;5100176;28;20079;-65
2022/09/24 12:00:56;;;;;;;6.93;0.80;;;15.40;99.90;;;;;;5083562;28;20036;-65
2022/09/24 12:03:50;;;;;;;6.68;1.20;;;15.30;99.90;;;;;;5091967;28;20072;-65
2022/09/24 12:06:24;;;;;;;5.47;1.10;;;15.30;99.90;;;;;;5086412;28;20149;-65
2022/09/24 12:09:05;;;;;;;6.80;0.98;;;15.30;99.90;;;;;;5091767;28;20084;-65
2022/09/24 12:11:40;;;;;;;4.95;0.77;;;15.30;99.90;;;;;;5093463;28;20045;-65
2022/09/24 12:14:12;;;;;;;;;;;15.30;99.90;;;;;;5092014;28;20068;-65
2022/09/24 12:16:42;;;;;;;7.10;0.45;;;15.20;99.90;;;;;;5090225;28;20151;-65
2022/09/24 12:19:23;;;;;;;6.10;1.25;;;15.20;99.90;;;;;;5095068;28;20083;-65
2022/09/24 12:21:51;;;;;;;4.55;0.70;;;15.20;99.90;;;;;;5093524;28;20055;-65
2022/09/24 12:24:27;;;;;;;6.45;0.60;;;15.10;99.90;;;;;;5093915;28;20044;-65
2022/09/24 12:26:56;;;;;;;3.13;0.57;;;15.00;99.90;;;;;;5091777;28;20054;-65
2022/09/24 12:32:54;;;;;;;4.15;0.60;;;15.00;99.90;;;;;;5092362;28;20054;-65
2022/09/24 12:35:23;;;;;;;5.05;0.40;;;15.00;99.90;;;;;;5094846;28;20462;-64
2022/09/24 12:37:56;;;;;;;4.10;0.85;;;15.00;99.90;;;;;;5094334;28;20035;-65
2022/09/24 12:40:54;;;;;;;3.33;0.50;;;15.10;99.90;;;;;;5095597;28;20134;-65
2022/09/24 12:43:32;;;;;;;6.53;0.60;;;15.10;99.90;;;;;;5091049;28;20044;-65
2022/09/24 12:46:03;;;;;;;5.57;1.13;;;15.10;99.90;;;;;;5091361;28;20036;-65
2022/09/24 12:48:34;;;;;;;2.50;0.70;;;15.20;99.90;;;;;;5097769;28;20036;-65
2022/09/24 12:51:03;;;;;;;5.40;0.80;;;15.20;99.90;;;;;;5075936;28;20059;-65
2022/09/24 12:53:34;;;;;;;3.42;0.55;;;15.20;99.90;;;;;;5084951;28;20182;-65
2022/09/24 12:56:01;;;;;;;5.32;0.77;;;15.20;99.90;;;;;;5089999;28;20024;-66
2022/09/24 12:58:42;;;;;;;2.78;0.32;;;15.10;99.90;;;;;;5088455;28;20047;-65
2022/09/24 13:01:25;;;;;;;4.30;0.70;;;15.10;99.90;;;;;;5091474;28;20043;-65
2022/09/24 13:04:20;;;;;;;5.13;0.68;;;15.10;99.90;;;;;;5094801;28;20052;-65
2022/09/24 13:06:48;;;;;;;4.13;0.50;;;15.10;99.90;;;;;;5072839;28;20526;-65
2022/09/24 13:09:37;;;;;;;5.57;1.15;;;15.10;99.90;;;;;;5095264;28;20294;-65
2022/09/24 13:12:04;;;;;;;7.55;1.10;;;15.10;99.90;;;;;;5094351;28;20044;-66